sensor_id;sensor_type;location;lat;lon;timestamp;pressure;altitude;pressure_sealevel;temperature;humidity
31346;BME280;21711;49.708;18.568;2022-11-20T00:01:28;96935.00;;;-2.32;100.00
31346;BME280;21711;49.708;18.568;2022-11-20T00:03:57;96938.56;;;-2.46;100.00
31346;BME280;21711;49.708;18.568;2022-11-20T00:06:28;96943.53;;;-2.45;100.00
31346;BME280;21711;49.708;18.568;2022-11-20T00:08:58;96946.75;;;-2.36;100.00
31346;BME280;21711;49.708;18.568;2022-11-20T00:11:29;96939.97;;;-2.51;100.00
31346;BME280;21711;49.708;18.568;2022-11-20T00:13:58;96941.56;;;-2.36;100.00
31346;BME280;21711;49.708;18.568;2022-11-20T00:16:30;96938.97;;;-2.49;100.00
31346;BME280;21711;49.708;18.568;2022-11-20T00:18:57;96927.78;;;-2.57;100.00
31346;BME280;21711;49.708;18.568;2022-11-20T00:21:27;96931.78;;;-2.54;100.00
31346;BME280;21711;49.708;18.568;2022-11-20T00:23:57;96941.53;;;-2.49;100.00
31346;BME280;21711;49.708;18.568;2022-11-20T00:26:27;96929.59;;;-2.57;100.00
31346;BME280;21711;49.708;18.568;2022-11-20T00:28:58;96930.13;;;-2.69;100.00
31346;BME280;21711;49.708;18.568;2022-11-20T00:31:26;96921.53;;;-2.83;100.00
31346;BME280;21711;49.708;18.568;2022-11-20T00:33:54;96921.69;;;-2.98;100.00
31346;BME280;21711;49.708;18.568;2022-11-20T00:36:25;96914.72;;;-3.04;100.00
31346;BME280;21711;49.708;18.568;2022-11-20T00:38:58;96917.47;;;-3.06;100.00
31346;BME280;21711;49.708;18.568;2022-11-20T00:41:27;96918.25;;;-3.12;100.00
31346;BME280;21711;49.708;18.568;2022-11-20T00:43:55;96932.97;;;-3.12;100.00
31346;BME280;21711;49.708;18.568;2022-11-20T00:46:26;96934.56;;;-3.18;100.00
31346;BME280;21711;49.708;18.568;2022-11-20T00:48:54;96923.97;;;-3.23;100.00
31346;BME280;21711;49.708;18.568;2022-11-20T00:51:25;96913.78;;;-3.38;100.00
31346;BME280;21711;49.708;18.568;2022-11-20T00:53:56;96910.97;;;-3.44;100.00
31346;BME280;21711;49.708;18.568;2022-11-20T00:56:24;96904.72;;;-3.56;100.00
31346;BME280;21711;49.708;18.568;2022-11-20T00:58:51;96898.94;;;-3.58;100.00
31346;BME280;21711;49.708;18.568;2022-11-20T01:01:22;96896.75;;;-3.61;100.00
31346;BME280;21711;49.708;18.568;2022-11-20T01:03:53;96899.69;;;-3.64;100.00
31346;BME280;21711;49.708;18.568;2022-11-20T01:06:33;96893.31;;;-3.68;100.00
31346;BME280;21711;49.708;18.568;2022-11-20T01:09:13;96890.06;;;-3.77;100.00
31346;BME280;21711;49.708;18.568;2022-11-20T01:11:43;96896.44;;;-3.80;100.00
31346;BME280;21711;49.708;18.568;2022-11-20T01:14:15;96891.63;;;-3.83;100.00
31346;BME280;21711;49.708;18.568;2022-11-20T01:16:48;96889.25;;;-3.85;100.00
31346;BME280;21711;49.708;18.568;2022-11-20T01:19:20;96891.50;;;-4.03;100.00
31346;BME280;21711;49.708;18.568;2022-11-20T01:21:51;96886.56;;;-3.98;100.00
31346;BME280;21711;49.708;18.568;2022-11-20T01:24:21;96883.22;;;-3.92;100.00
31346;BME280;21711;49.708;18.568;2022-11-20T01:26:50;96884.63;;;-3.89;100.00
31346;BME280;21711;49.708;18.568;2022-11-20T01:29:23;96883.28;;;-3.85;100.00
31346;BME280;21711;49.708;18.568;2022-11-20T01:31:52;96885.63;;;-3.90;100.00
31346;BME280;21711;49.708;18.568;2022-11-20T01:34:21;96880.38;;;-4.04;100.00
31346;BME280;21711;49.708;18.568;2022-11-20T01:36:49;96878.06;;;-4.20;100.00
31346;BME280;21711;49.708;18.568;2022-11-20T01:39:25;96873.88;;;-4.22;100.00
31346;BME280;21711;49.708;18.568;2022-11-20T01:41:55;96880.97;;;-4.30;100.00
31346;BME280;21711;49.708;18.568;2022-11-20T01:47:36;96881.16;;;-4.32;100.00
31346;BME280;21711;49.708;18.568;2022-11-20T01:50:12;96881.31;;;-4.33;100.00
31346;BME280;21711;49.708;18.568;2022-11-20T01:52:56;96873.34;;;-4.39;100.00
31346;BME280;21711;49.708;18.568;2022-11-20T01:55:34;96871.34;;;-4.43;100.00
31346;BME280;21711;49.708;18.568;2022-11-20T01:58:03;96876.84;;;-4.46;100.00
31346;BME280;21711;49.708;18.568;2022-11-20T02:00:32;96874.47;;;-4.48;100.00
31346;BME280;21711;49.708;18.568;2022-11-20T02:03:09;96882.13;;;-4.55;100.00
31346;BME280;21711;49.708;18.568;2022-11-20T02:08:29;96876.91;;;-4.62;100.00
31346;BME280;21711;49.708;18.568;2022-11-20T02:10:56;96872.97;;;-4.57;100.00
31346;BME280;21711;49.708;18.568;2022-11-20T02:13:23;96886.53;;;-4.55;100.00
31346;BME280;21711;49.708;18.568;2022-11-20T02:18:45;96881.53;;;-4.57;100.00
31346;BME280;21711;49.708;18.568;2022-11-20T02:26:42;96902.06;;;-4.70;100.00
31346;BME280;21711;49.708;18.568;2022-11-20T02:29:12;96889.75;;;-4.68;100.00
31346;BME280;21711;49.708;18.568;2022-11-20T02:31:42;96892.41;;;-4.62;100.00
31346;BME280;21711;49.708;18.568;2022-11-20T02:34:10;96892.03;;;-4.58;100.00
31346;BME280;21711;49.708;18.568;2022-11-20T02:36:39;96893.38;;;-4.63;100.00
31346;BME280;21711;49.708;18.568;2022-11-20T02:39:09;96893.38;;;-4.63;100.00
31346;BME280;21711;49.708;18.568;2022-11-20T02:41:39;96898.50;;;-4.47;100.00
31346;BME280;21711;49.708;18.568;2022-11-20T02:44:06;96903.16;;;-4.36;100.00
31346;BME280;21711;49.708;18.568;2022-11-20T02:46:33;96904.22;;;-4.30;100.00
31346;BME280;21711;49.708;18.568;2022-11-20T02:49:03;96901.75;;;-4.17;100.00
31346;BME280;21711;49.708;18.568;2022-11-20T02:51:31;96898.44;;;-4.04;100.00
31346;BME280;21711;49.708;18.568;2022-11-20T02:53:59;96895.34;;;-3.92;100.00
31346;BME280;21711;49.708;18.568;2022-11-20T02:56:27;96901.38;;;-3.85;100.00
31346;BME280;21711;49.708;18.568;2022-11-20T02:58:54;96906.75;;;-3.80;100.00
31346;BME280;21711;49.708;18.568;2022-11-20T03:01:22;96901.88;;;-3.68;100.00
31346;BME280;21711;49.708;18.568;2022-11-20T03:03:50;96900.91;;;-3.60;100.00
31346;BME280;21711;49.708;18.568;2022-11-20T03:06:17;96907.31;;;-3.56;100.00
31346;BME280;21711;49.708;18.568;2022-11-20T03:08:44;96901.00;;;-3.47;100.00
31346;BME280;21711;49.708;18.568;2022-11-20T03:11:11;96908.97;;;-3.41;100.00
31346;BME280;21711;49.708;18.568;2022-11-20T03:13:39;96909.16;;;-3.43;100.00
31346;BME280;21711;49.708;18.568;2022-11-20T03:16:15;96905.50;;;-3.20;100.00
31346;BME280;21711;49.708;18.568;2022-11-20T03:18:43;96916.34;;;-2.89;100.00
31346;BME280;21711;49.708;18.568;2022-11-20T03:21:12;96913.19;;;-2.85;100.00
31346;BME280;21711;49.708;18.568;2022-11-20T03:23:40;96914.00;;;-2.78;100.00
31346;BME280;21711;49.708;18.568;2022-11-20T03:26:14;96911.22;;;-2.69;100.00
31346;BME280;21711;49.708;18.568;2022-11-20T03:28:48;96919.81;;;-2.55;100.00
31346;BME280;21711;49.708;18.568;2022-11-20T03:31:18;96917.22;;;-2.62;100.00
31346;BME280;21711;49.708;18.568;2022-11-20T03:33:46;96917.84;;;-2.46;100.00
31346;BME280;21711;49.708;18.568;2022-11-20T03:36:15;96914.06;;;-2.44;100.00
31346;BME280;21711;49.708;18.568;2022-11-20T03:38:43;96911.28;;;-2.42;100.00
31346;BME280;21711;49.708;18.568;2022-11-20T03:41:14;96907.91;;;-2.36;100.00
31346;BME280;21711;49.708;18.568;2022-11-20T03:43:42;96910.31;;;-2.28;100.00
31346;BME280;21711;49.708;18.568;2022-11-20T03:46:09;96905.91;;;-2.14;100.00
31346;BME280;21711;49.708;18.568;2022-11-20T03:48:36;96901.72;;;-2.21;100.00
31346;BME280;21711;49.708;18.568;2022-11-20T03:51:08;96894.53;;;-2.13;100.00
31346;BME280;21711;49.708;18.568;2022-11-20T03:53:37;96893.16;;;-2.08;100.00
31346;BME280;21711;49.708;18.568;2022-11-20T03:56:05;96885.56;;;-2.10;100.00
31346;BME280;21711;49.708;18.568;2022-11-20T03:58:34;96889.38;;;-2.13;100.00
31346;BME280;21711;49.708;18.568;2022-11-20T04:01:15;96899.34;;;-2.16;100.00
31346;BME280;21711;49.708;18.568;2022-11-20T04:03:44;96899.91;;;-2.14;100.00
31346;BME280;21711;49.708;18.568;2022-11-20T04:06:27;96894.75;;;-2.14;100.00
31346;BME280;21711;49.708;18.568;2022-11-20T04:08:56;96891.75;;;-2.04;100.00
31346;BME280;21711;49.708;18.568;2022-11-20T04:11:27;96895.75;;;-2.08;100.00
31346;BME280;21711;49.708;18.568;2022-11-20T04:14:00;96899.13;;;-2.21;100.00
31346;BME280;21711;49.708;18.568;2022-11-20T04:16:35;96894.94;;;-2.43;100.00
31346;BME280;21711;49.708;18.568;2022-11-20T04:19:06;96893.16;;;-2.42;100.00
31346;BME280;21711;49.708;18.568;2022-11-20T04:21:33;96893.91;;;-2.55;100.00
31346;BME280;21711;49.708;18.568;2022-11-20T04:24:01;96891.97;;;-2.40;100.00
31346;BME280;21711;49.708;18.568;2022-11-20T04:26:29;96892.94;;;-2.41;100.00
31346;BME280;21711;49.708;18.568;2022-11-20T04:28:58;96900.50;;;-2.39;100.00
31346;BME280;21711;49.708;18.568;2022-11-20T04:31:28;96896.53;;;-2.35;100.00
31346;BME280;21711;49.708;18.568;2022-11-20T04:34:02;96905.31;;;-2.43;100.00
31346;BME280;21711;49.708;18.568;2022-11-20T04:36:31;96895.94;;;-2.51;100.00
31346;BME280;21711;49.708;18.568;2022-11-20T04:39:02;96889.34;;;-2.53;100.00
31346;BME280;21711;49.708;18.568;2022-11-20T04:41:33;96894.53;;;-2.53;100.00
31346;BME280;21711;49.708;18.568;2022-11-20T04:44:04;96885.56;;;-2.64;100.00
31346;BME280;21711;49.708;18.568;2022-11-20T04:46:40;96881.38;;;-2.58;100.00
31346;BME280;21711;49.708;18.568;2022-11-20T04:49:08;96885.38;;;-2.49;100.00
31346;BME280;21711;49.708;18.568;2022-11-20T04:51:36;96882.19;;;-2.44;100.00
31346;BME280;21711;49.708;18.568;2022-11-20T04:54:03;96874.81;;;-2.54;100.00
31346;BME280;21711;49.708;18.568;2022-11-20T04:56:30;96866.81;;;-2.59;100.00
31346;BME280;21711;49.708;18.568;2022-11-20T04:59:01;96865.44;;;-2.62;100.00
31346;BME280;21711;49.708;18.568;2022-11-20T05:01:29;96862.47;;;-2.52;100.00
31346;BME280;21711;49.708;18.568;2022-11-20T05:03:57;96848.31;;;-2.29;100.00
31346;BME280;21711;49.708;18.568;2022-11-20T05:06:24;96850.09;;;-2.30;100.00
31346;BME280;21711;49.708;18.568;2022-11-20T05:08:51;96859.06;;;-2.19;100.00
31346;BME280;21711;49.708;18.568;2022-11-20T05:11:20;96855.47;;;-2.31;100.00
31346;BME280;21711;49.708;18.568;2022-11-20T05:13:49;96854.09;;;-2.61;100.00
31346;BME280;21711;49.708;18.568;2022-11-20T05:16:22;96847.28;;;-2.62;100.00
31346;BME280;21711;49.708;18.568;2022-11-20T05:18:52;96856.28;;;-2.58;100.00
31346;BME280;21711;49.708;18.568;2022-11-20T05:21:20;96856.09;;;-2.43;100.00
31346;BME280;21711;49.708;18.568;2022-11-20T05:23:48;96846.94;;;-2.45;100.00
31346;BME280;21711;49.708;18.568;2022-11-20T05:26:18;96849.53;;;-2.39;100.00
31346;BME280;21711;49.708;18.568;2022-11-20T05:28:47;96849.91;;;-2.48;100.00
31346;BME280;21711;49.708;18.568;2022-11-20T05:31:18;96843.94;;;-2.56;100.00
31346;BME280;21711;49.708;18.568;2022-11-20T05:33:53;96842.94;;;-2.48;100.00
31346;BME280;21711;49.708;18.568;2022-11-20T05:36:20;96841.16;;;-2.61;100.00
31346;BME280;21711;49.708;18.568;2022-11-20T05:38:48;96845.34;;;-2.40;100.00
31346;BME280;21711;49.708;18.568;2022-11-20T05:41:19;96853.13;;;-2.40;100.00
31346;BME280;21711;49.708;18.568;2022-11-20T05:43:49;96849.31;;;-2.44;100.00
31346;BME280;21711;49.708;18.568;2022-11-20T05:46:20;96851.28;;;-2.46;100.00
31346;BME280;21711;49.708;18.568;2022-11-20T05:48:55;96846.72;;;-2.23;100.00
31346;BME280;21711;49.708;18.568;2022-11-20T05:51:24;96840.34;;;-2.21;100.00
31346;BME280;21711;49.708;18.568;2022-11-20T05:53:51;96838.56;;;-2.27;100.00
31346;BME280;21711;49.708;18.568;2022-11-20T05:56:20;96843.34;;;-2.38;100.00
31346;BME280;21711;49.708;18.568;2022-11-20T05:58:48;96836.75;;;-2.47;100.00
31346;BME280;21711;49.708;18.568;2022-11-20T06:01:23;96817.63;;;-2.32;100.00
31346;BME280;21711;49.708;18.568;2022-11-20T06:03:52;96817.63;;;-2.39;100.00
31346;BME280;21711;49.708;18.568;2022-11-20T06:06:20;96812.25;;;-2.51;100.00
31346;BME280;21711;49.708;18.568;2022-11-20T06:08:48;96801.50;;;-2.61;100.00
31346;BME280;21711;49.708;18.568;2022-11-20T06:11:16;96810.66;;;-2.66;100.00
31346;BME280;21711;49.708;18.568;2022-11-20T06:13:44;96805.69;;;-2.60;100.00
31346;BME280;21711;49.708;18.568;2022-11-20T06:16:15;96816.84;;;-2.60;100.00
31346;BME280;21711;49.708;18.568;2022-11-20T06:18:43;96812.66;;;-2.74;100.00
31346;BME280;21711;49.708;18.568;2022-11-20T06:21:17;96806.69;;;-2.61;100.00
31346;BME280;21711;49.708;18.568;2022-11-20T06:23:45;96809.84;;;-2.46;100.00
31346;BME280;21711;49.708;18.568;2022-11-20T06:26:19;96807.06;;;-2.51;100.00
31346;BME280;21711;49.708;18.568;2022-11-20T06:28:47;96800.69;;;-2.48;100.00
31346;BME280;21711;49.708;18.568;2022-11-20T06:31:16;96797.09;;;-2.34;100.00
31346;BME280;21711;49.708;18.568;2022-11-20T06:33:45;96794.50;;;-2.34;100.00
31346;BME280;21711;49.708;18.568;2022-11-20T06:36:15;96798.69;;;-2.26;100.00
31346;BME280;21711;49.708;18.568;2022-11-20T06:38:43;96802.50;;;-2.42;100.00
31346;BME280;21711;49.708;18.568;2022-11-20T06:41:19;96800.88;;;-2.23;100.00
31346;BME280;21711;49.708;18.568;2022-11-20T06:43:48;96800.84;;;-2.03;100.00
31346;BME280;21711;49.708;18.568;2022-11-20T06:46:17;96805.66;;;-2.00;100.00
31346;BME280;21711;49.708;18.568;2022-11-20T06:48:47;96803.81;;;-1.92;100.00
31346;BME280;21711;49.708;18.568;2022-11-20T06:51:14;96811.38;;;-1.77;100.00
31346;BME280;21711;49.708;18.568;2022-11-20T06:53:42;96804.34;;;-1.70;100.00
31346;BME280;21711;49.708;18.568;2022-11-20T06:56:09;96806.56;;;-1.74;100.00
31346;BME280;21711;49.708;18.568;2022-11-20T06:58:37;96808.75;;;-1.64;100.00
31346;BME280;21711;49.708;18.568;2022-11-20T07:01:09;96813.44;;;-1.47;100.00
31346;BME280;21711;49.708;18.568;2022-11-20T07:03:37;96807.03;;;-1.38;100.00
31346;BME280;21711;49.708;18.568;2022-11-20T07:06:05;96818.59;;;-1.34;100.00
31346;BME280;21711;49.708;18.568;2022-11-20T07:08:33;96815.53;;;-1.24;100.00
31346;BME280;21711;49.708;18.568;2022-11-20T07:11:06;96822.34;;;-1.23;100.00
31346;BME280;21711;49.708;18.568;2022-11-20T07:13:33;96827.13;;;-1.26;100.00
31346;BME280;21711;49.708;18.568;2022-11-20T07:16:04;96819.31;;;-1.20;100.00
31346;BME280;21711;49.708;18.568;2022-11-20T07:18:31;96822.34;;;-1.23;100.00
31346;BME280;21711;49.708;18.568;2022-11-20T07:21:08;96827.09;;;-1.20;100.00
31346;BME280;21711;49.708;18.568;2022-11-20T07:23:36;96832.06;;;-1.11;100.00
31346;BME280;21711;49.708;18.568;2022-11-20T07:26:09;96831.69;;;-1.15;100.00
31346;BME280;21711;49.708;18.568;2022-11-20T07:28:37;96839.03;;;-1.12;100.00
31346;BME280;21711;49.708;18.568;2022-11-20T07:31:05;96840.78;;;-0.99;100.00
31346;BME280;21711;49.708;18.568;2022-11-20T07:33:34;96837.53;;;-0.94;100.00
31346;BME280;21711;49.708;18.568;2022-11-20T07:36:01;96843.34;;;-0.92;100.00
31346;BME280;21711;49.708;18.568;2022-11-20T07:38:29;96841.34;;;-0.97;100.00
31346;BME280;21711;49.708;18.568;2022-11-20T07:40:57;96841.31;;;-0.90;100.00
31346;BME280;21711;49.708;18.568;2022-11-20T07:43:25;96843.31;;;-0.85;100.00
31346;BME280;21711;49.708;18.568;2022-11-20T07:45:55;96842.09;;;-0.83;100.00
31346;BME280;21711;49.708;18.568;2022-11-20T07:48:23;96831.56;;;-0.62;100.00
31346;BME280;21711;49.708;18.568;2022-11-20T07:50:57;96829.13;;;-0.57;100.00
31346;BME280;21711;49.708;18.568;2022-11-20T07:53:25;96839.25;;;-0.49;99.10
31346;BME280;21711;49.708;18.568;2022-11-20T07:55:52;96839.56;;;-0.38;100.00
31346;BME280;21711;49.708;18.568;2022-11-20T07:58:21;96837.66;;;-0.50;100.00
31346;BME280;21711;49.708;18.568;2022-11-20T08:00:48;96845.16;;;-0.35;97.79
31346;BME280;21711;49.708;18.568;2022-11-20T08:03:16;96840.59;;;-0.40;93.78
31346;BME280;21711;49.708;18.568;2022-11-20T08:05:51;96833.22;;;-0.43;100.00
31346;BME280;21711;49.708;18.568;2022-11-20T08:08:18;96834.31;;;-0.32;100.00
31346;BME280;21711;49.708;18.568;2022-11-20T08:10:46;96839.19;;;-0.42;100.00
31346;BME280;21711;49.708;18.568;2022-11-20T08:13:13;96842.28;;;-0.27;99.93
31346;BME280;21711;49.708;18.568;2022-11-20T08:15:59;96840.06;;;-0.23;95.55
31346;BME280;21711;49.708;18.568;2022-11-20T08:18:26;96842.38;;;-0.15;97.11
31346;BME280;21711;49.708;18.568;2022-11-20T08:21:04;96844.75;;;-0.13;95.25
31346;BME280;21711;49.708;18.568;2022-11-20T08:23:32;96848.13;;;-0.06;93.49
31346;BME280;21711;49.708;18.568;2022-11-20T08:25:59;96842.03;;;0.01;91.24
31346;BME280;21711;49.708;18.568;2022-11-20T08:28:27;96842.56;;;-0.09;92.25
31346;BME280;21711;49.708;18.568;2022-11-20T08:31:01;96852.28;;;-0.05;92.16
31346;BME280;21711;49.708;18.568;2022-11-20T08:33:29;96863.72;;;-0.06;95.38
31346;BME280;21711;49.708;18.568;2022-11-20T08:36:01;96867.28;;;0.00;93.74
31346;BME280;21711;49.708;18.568;2022-11-20T08:38:30;96859.47;;;0.00;96.68
31346;BME280;21711;49.708;18.568;2022-11-20T08:41:03;96857.75;;;-0.13;96.68
31346;BME280;21711;49.708;18.568;2022-11-20T08:43:49;96850.16;;;-0.15;95.25
31346;BME280;21711;49.708;18.568;2022-11-20T08:46:17;96862.97;;;-0.13;95.64
31346;BME280;21711;49.708;18.568;2022-11-20T08:48:45;96861.00;;;-0.18;97.72
31346;BME280;21711;49.708;18.568;2022-11-20T08:51:13;96850.88;;;-0.01;97.17
31346;BME280;21711;49.708;18.568;2022-11-20T08:53:41;96859.16;;;0.08;97.88
31346;BME280;21711;49.708;18.568;2022-11-20T08:56:09;96857.22;;;0.04;89.98
31346;BME280;21711;49.708;18.568;2022-11-20T08:58:39;96852.53;;;0.12;90.22
31346;BME280;21711;49.708;18.568;2022-11-20T09:01:27;96861.91;;;0.13;91.43
31346;BME280;21711;49.708;18.568;2022-11-20T09:03:56;96854.84;;;0.02;88.50
31346;BME280;21711;49.708;18.568;2022-11-20T09:06:26;96851.91;;;0.17;90.85
31346;BME280;21711;49.708;18.568;2022-11-20T09:08:54;96854.22;;;0.44;93.87
31346;BME280;21711;49.708;18.568;2022-11-20T09:11:22;96852.34;;;0.51;90.77
31346;BME280;21711;49.708;18.568;2022-11-20T09:13:50;96852.56;;;0.50;91.00
31346;BME280;21711;49.708;18.568;2022-11-20T09:16:17;96852.22;;;0.46;86.71
31346;BME280;21711;49.708;18.568;2022-11-20T09:18:45;96851.41;;;0.46;88.62
31346;BME280;21711;49.708;18.568;2022-11-20T09:21:13;96845.38;;;0.64;90.87
31346;BME280;21711;49.708;18.568;2022-11-20T09:23:41;96842.88;;;0.57;92.23
31346;BME280;21711;49.708;18.568;2022-11-20T09:26:13;96837.56;;;0.83;92.01
31346;BME280;21711;49.708;18.568;2022-11-20T09:28:41;96842.69;;;0.89;93.24
31346;BME280;21711;49.708;18.568;2022-11-20T09:31:17;96844.50;;;0.89;94.27
31346;BME280;21711;49.708;18.568;2022-11-20T09:33:46;96834.22;;;1.25;90.22
31346;BME280;21711;49.708;18.568;2022-11-20T09:36:14;96835.94;;;1.43;87.59
31346;BME280;21711;49.708;18.568;2022-11-20T09:38:41;96829.28;;;1.59;87.43
31346;BME280;21711;49.708;18.568;2022-11-20T09:41:47;96822.16;;;1.78;86.39
31346;BME280;21711;49.708;18.568;2022-11-20T09:44:37;96822.50;;;2.06;84.30
31346;BME280;21711;49.708;18.568;2022-11-20T09:50:45;96819.16;;;2.75;80.13
31346;BME280;21711;49.708;18.568;2022-11-20T09:56:04;96820.19;;;3.33;77.46
31346;BME280;21711;49.708;18.568;2022-11-20T09:58:42;96817.31;;;3.51;76.50
31346;BME280;21711;49.708;18.568;2022-11-20T10:01:32;96824.53;;;3.61;75.34
31346;BME280;21711;49.708;18.568;2022-11-20T10:04:15;96823.19;;;3.59;74.03
31346;BME280;21711;49.708;18.568;2022-11-20T10:10:00;96816.75;;;3.84;73.90
31346;BME280;21711;49.708;18.568;2022-11-20T10:30:31;96818.81;;;3.99;78.96
31346;BME280;21711;49.708;18.568;2022-11-20T10:33:21;96804.31;;;3.91;80.61
31346;BME280;21711;49.708;18.568;2022-11-20T10:36:07;96812.09;;;3.51;78.01
31346;BME280;21711;49.708;18.568;2022-11-20T10:38:51;96817.22;;;3.29;83.42
31346;BME280;21711;49.708;18.568;2022-11-20T10:41:34;96803.94;;;3.65;81.26
31346;BME280;21711;49.708;18.568;2022-11-20T10:44:19;96804.34;;;3.74;79.71
31346;BME280;21711;49.708;18.568;2022-11-20T10:47:08;96797.16;;;4.03;81.65
31346;BME280;21711;49.708;18.568;2022-11-20T10:49:38;96791.84;;;3.98;79.86
31346;BME280;21711;49.708;18.568;2022-11-20T10:55:30;96803.59;;;3.95;79.39
31346;BME280;21711;49.708;18.568;2022-11-20T10:58:13;96805.53;;;3.66;81.78
31346;BME280;21711;49.708;18.568;2022-11-20T11:00:41;96800.75;;;3.80;81.23
31346;BME280;21711;49.708;18.568;2022-11-20T11:03:25;96809.47;;;3.51;80.16
31346;BME280;21711;49.708;18.568;2022-11-20T11:09:00;96793.16;;;3.44;85.33
31346;BME280;21711;49.708;18.568;2022-11-20T11:11:32;96805.28;;;6.48;71.88
31346;BME280;21711;49.708;18.568;2022-11-20T11:14:09;96801.31;;;7.30;64.50
31346;BME280;21711;49.708;18.568;2022-11-20T11:16:50;96797.03;;;6.13;70.85
31346;BME280;21711;49.708;18.568;2022-11-20T11:19:18;96785.66;;;5.26;74.26
31346;BME280;21711;49.708;18.568;2022-11-20T11:21:55;96792.84;;;5.79;74.47
31346;BME280;21711;49.708;18.568;2022-11-20T11:24:29;96788.34;;;5.04;73.65
31346;BME280;21711;49.708;18.568;2022-11-20T11:27:14;96789.91;;;5.05;76.49
31346;BME280;21711;49.708;18.568;2022-11-20T11:29:46;96781.25;;;4.50;79.53
31346;BME280;21711;49.708;18.568;2022-11-20T11:32:18;96783.81;;;4.05;82.43
31346;BME280;21711;49.708;18.568;2022-11-20T11:35:20;96769.25;;;5.09;78.96
31346;BME280;21711;49.708;18.568;2022-11-20T11:37:48;96773.47;;;6.29;70.76
31346;BME280;21711;49.708;18.568;2022-11-20T11:40:18;96771.47;;;5.60;74.64
31346;BME280;21711;49.708;18.568;2022-11-20T11:42:59;96760.56;;;5.36;75.37
31346;BME280;21711;49.708;18.568;2022-11-20T11:45:27;96762.22;;;5.15;75.23
31346;BME280;21711;49.708;18.568;2022-11-20T11:47:58;96755.41;;;5.13;75.79
31346;BME280;21711;49.708;18.568;2022-11-20T11:50:29;96751.44;;;5.44;74.55
31346;BME280;21711;49.708;18.568;2022-11-20T11:53:12;96756.94;;;5.85;73.39
31346;BME280;21711;49.708;18.568;2022-11-20T11:55:58;96752.88;;;6.10;71.89
31346;BME280;21711;49.708;18.568;2022-11-20T11:58:41;96740.56;;;5.68;76.16
31346;BME280;21711;49.708;18.568;2022-11-20T12:01:32;96746.94;;;6.30;72.45
31346;BME280;21711;49.708;18.568;2022-11-20T12:04:40;96733.22;;;6.13;70.12
31346;BME280;21711;49.708;18.568;2022-11-20T12:15:53;96736.03;;;10.33;57.92
31346;BME280;21711;49.708;18.568;2022-11-20T12:18:22;96739.44;;;10.77;54.29
31346;BME280;21711;49.708;18.568;2022-11-20T12:27:15;96730.94;;;7.93;63.84
31346;BME280;21711;49.708;18.568;2022-11-20T12:30:12;96715.81;;;7.33;66.35
31346;BME280;21711;49.708;18.568;2022-11-20T12:36:39;96724.16;;;6.52;71.97
31346;BME280;21711;49.708;18.568;2022-11-20T12:39:35;96719.88;;;6.25;73.40
31346;BME280;21711;49.708;18.568;2022-11-20T12:48:25;96696.84;;;6.58;72.01
31346;BME280;21711;49.708;18.568;2022-11-20T12:56:52;96694.25;;;5.46;75.72
31346;BME280;21711;49.708;18.568;2022-11-20T12:59:48;96690.91;;;5.18;78.33
31346;BME280;21711;49.708;18.568;2022-11-20T13:08:32;96683.91;;;3.86;84.19
31346;BME280;21711;49.708;18.568;2022-11-20T13:11:27;96681.00;;;4.04;85.01
31346;BME280;21711;49.708;18.568;2022-11-20T13:16:36;96667.06;;;3.99;87.23
31346;BME280;21711;49.708;18.568;2022-11-20T13:19:09;96668.75;;;4.10;87.54
31346;BME280;21711;49.708;18.568;2022-11-20T13:21:47;96656.88;;;4.02;87.45
31346;BME280;21711;49.708;18.568;2022-11-20T13:26:47;96662.88;;;4.25;92.08
31346;BME280;21711;49.708;18.568;2022-11-20T13:29:18;96660.22;;;4.47;91.32
31346;BME280;21711;49.708;18.568;2022-11-20T13:31:47;96666.50;;;4.46;88.07
31346;BME280;21711;49.708;18.568;2022-11-20T13:34:26;96658.88;;;4.45;88.31
31346;BME280;21711;49.708;18.568;2022-11-20T13:36:56;96658.84;;;4.40;88.93
31346;BME280;21711;49.708;18.568;2022-11-20T13:42:20;96651.66;;;4.02;88.64
31346;BME280;21711;49.708;18.568;2022-11-20T13:44:55;96643.06;;;3.85;90.41
31346;BME280;21711;49.708;18.568;2022-11-20T13:47:28;96642.53;;;3.83;92.10
31346;BME280;21711;49.708;18.568;2022-11-20T13:49:58;96651.19;;;3.83;96.36
31346;BME280;21711;49.708;18.568;2022-11-20T13:55:40;96650.44;;;3.88;93.87
31346;BME280;21711;49.708;18.568;2022-11-20T14:01:50;96648.06;;;3.64;96.00
31346;BME280;21711;49.708;18.568;2022-11-20T14:04:27;96645.63;;;3.57;98.31
31346;BME280;21711;49.708;18.568;2022-11-20T14:06:56;96649.69;;;3.48;97.55
31346;BME280;21711;49.708;18.568;2022-11-20T14:09:28;96640.69;;;3.38;96.80
31346;BME280;21711;49.708;18.568;2022-11-20T14:11:56;96640.91;;;3.37;99.04
31346;BME280;21711;49.708;18.568;2022-11-20T14:14:29;96636.78;;;3.41;100.00
31346;BME280;21711;49.708;18.568;2022-11-20T14:19:55;96636.91;;;3.51;100.00
31346;BME280;21711;49.708;18.568;2022-11-20T14:22:27;96635.50;;;3.44;100.00
31346;BME280;21711;49.708;18.568;2022-11-20T14:27:49;96631.59;;;3.24;100.00
31346;BME280;21711;49.708;18.568;2022-11-20T14:30:21;96622.28;;;3.11;100.00
31346;BME280;21711;49.708;18.568;2022-11-20T14:32:51;96624.75;;;3.00;100.00
31346;BME280;21711;49.708;18.568;2022-11-20T14:35:29;96620.69;;;3.10;100.00
31346;BME280;21711;49.708;18.568;2022-11-20T14:37:57;96624.09;;;3.10;100.00
31346;BME280;21711;49.708;18.568;2022-11-20T14:40:34;96638.34;;;3.02;100.00
31346;BME280;21711;49.708;18.568;2022-11-20T14:43:22;96625.16;;;2.58;100.00
31346;BME280;21711;49.708;18.568;2022-11-20T14:48:44;96596.75;;;2.61;100.00
31346;BME280;21711;49.708;18.568;2022-11-20T14:51:35;96610.25;;;2.58;100.00
31346;BME280;21711;49.708;18.568;2022-11-20T14:54:20;96618.28;;;2.22;100.00
31346;BME280;21711;49.708;18.568;2022-11-20T14:57:00;96617.34;;;2.29;100.00
31346;BME280;21711;49.708;18.568;2022-11-20T14:59:34;96618.06;;;2.41;100.00
31346;BME280;21711;49.708;18.568;2022-11-20T15:02:20;96618.88;;;2.42;100.00